createdAt,value
2022-11-17T00:00:42.989Z,27.50
2022-11-17T00:03:15.982Z,28.02
2022-11-17T00:05:44.871Z,30.00
2022-11-17T00:08:12.017Z,29.48
2022-11-17T00:10:38.932Z,29.77
2022-11-17T00:13:24.553Z,30.02
2022-11-17T00:15:51.851Z,29.75
2022-11-17T00:18:37.902Z,27.55
2022-11-17T00:21:21.918Z,28.35
2022-11-17T00:23:50.687Z,31.10
2022-11-17T00:26:19.006Z,28.08
2022-11-17T00:28:46.234Z,27.88
2022-11-17T00:31:33.719Z,29.25
2022-11-17T00:34:07.294Z,27.13
2022-11-17T00:36:43.414Z,29.75
2022-11-17T00:39:11.846Z,28.88
2022-11-17T00:41:39.664Z,28.52
2022-11-17T00:44:07.779Z,29.77
2022-11-17T00:46:37.247Z,29.20
2022-11-17T00:49:05.991Z,28.23
2022-11-17T00:51:33.891Z,26.98
2022-11-17T00:54:02.181Z,25.83
2022-11-17T00:56:29.686Z,27.30
2022-11-17T00:58:56.621Z,27.17
2022-11-17T01:01:24.756Z,27.58
2022-11-17T01:04:03.315Z,27.25
2022-11-17T01:06:46.231Z,27.65
2022-11-17T01:09:15.059Z,26.10
2022-11-17T01:11:43.193Z,26.75
2022-11-17T01:14:17.716Z,23.77
2022-11-17T01:16:45.891Z,22.08
2022-11-17T01:19:14.729Z,20.63
2022-11-17T01:21:41.786Z,21.20
2022-11-17T01:24:11.687Z,22.55
2022-11-17T01:26:40.045Z,22.05
2022-11-17T01:29:08.501Z,20.50
2022-11-17T01:31:38.684Z,18.95
2022-11-17T01:34:07.412Z,19.63
2022-11-17T01:36:57.662Z,20.55
2022-11-17T01:39:26.623Z,22.45
2022-11-17T01:41:55.229Z,19.73
2022-11-17T01:44:54.235Z,19.98
2022-11-17T01:47:28.902Z,18.13
2022-11-17T01:50:08.436Z,18.17
2022-11-17T01:52:38.560Z,18.58
2022-11-17T01:55:08.794Z,19.10
2022-11-17T01:58:01.492Z,18.45
2022-11-17T02:00:32.009Z,18.05
2022-11-17T02:02:59.717Z,15.63
2022-11-17T02:05:55.267Z,16.25
2022-11-17T02:08:25.669Z,15.70
2022-11-17T02:10:53.933Z,15.82
2022-11-17T02:13:22.747Z,15.02
2022-11-17T02:15:50.434Z,16.90
2022-11-17T02:18:18.498Z,17.08
2022-11-17T02:21:10.767Z,17.08
2022-11-17T02:23:40.808Z,14.00
2022-11-17T02:26:26.894Z,15.70
2022-11-17T02:29:15.251Z,14.43
2022-11-17T02:31:59.147Z,14.82
2022-11-17T02:34:50.649Z,15.13
2022-11-17T02:37:33.130Z,15.25
2022-11-17T02:40:04.043Z,15.70
2022-11-17T02:42:57.617Z,19.23
2022-11-17T02:45:37.540Z,19.55
2022-11-17T02:48:11.897Z,20.90
2022-11-17T02:50:41.554Z,19.13
2022-11-17T02:53:09.216Z,19.83
2022-11-17T02:55:37.589Z,19.92
2022-11-17T02:58:09.857Z,19.05
2022-11-17T03:00:49.776Z,19.02
2022-11-17T03:03:31.798Z,20.02
2022-11-17T03:06:16.539Z,16.77
2022-11-17T03:08:58.880Z,16.83
2022-11-17T03:11:40.116Z,17.00
2022-11-17T03:14:21.236Z,19.15
2022-11-17T03:17:03.428Z,24.45
2022-11-17T03:19:38.630Z,19.70
2022-11-17T03:22:15.512Z,17.98
2022-11-17T03:24:48.968Z,17.88
2022-11-17T03:27:31.087Z,18.48
2022-11-17T03:30:09.638Z,16.95
2022-11-17T03:32:41.409Z,17.85
2022-11-17T03:35:12.637Z,17.00
2022-11-17T03:37:46.606Z,15.95
2022-11-17T03:40:18.763Z,15.30
2022-11-17T03:42:52.859Z,19.55
2022-11-17T03:45:26.233Z,19.55
2022-11-17T03:48:09.053Z,19.13
2022-11-17T03:50:46.399Z,16.95
2022-11-17T03:53:14.418Z,16.75
2022-11-17T03:55:59.419Z,16.42
2022-11-17T03:58:33.693Z,17.80
2022-11-17T04:01:03.713Z,16.52
2022-11-17T04:03:34.339Z,17.15
2022-11-17T04:06:02.049Z,17.10
2022-11-17T04:08:30.903Z,18.83
2022-11-17T04:11:17.001Z,22.50
2022-11-17T04:14:02.352Z,21.92
2022-11-17T04:16:29.970Z,23.70
2022-11-17T04:18:58.969Z,22.20
2022-11-17T04:21:26.597Z,20.85
2022-11-17T04:23:53.672Z,19.25
2022-11-17T04:26:39.760Z,19.48
2022-11-17T04:29:07.280Z,17.02
2022-11-17T04:31:35.373Z,16.00
2022-11-17T04:34:05.182Z,18.15
2022-11-17T04:36:41.006Z,16.42
2022-11-17T04:39:07.986Z,18.27
2022-11-17T04:41:54.198Z,17.77
2022-11-17T04:44:23.994Z,18.50
2022-11-17T04:46:55.512Z,17.33
2022-11-17T04:49:23.986Z,17.80
2022-11-17T04:51:52.818Z,19.02
2022-11-17T04:54:24.296Z,21.08
2022-11-17T04:56:52.552Z,28.90
2022-11-17T04:59:19.824Z,30.52
2022-11-17T05:01:47.386Z,32.80
2022-11-17T05:04:35.799Z,30.63
2022-11-17T05:07:03.101Z,32.53
2022-11-17T05:09:31.324Z,50.40
2022-11-17T05:12:17.385Z,44.38
2022-11-17T05:14:48.782Z,33.13
2022-11-17T05:19:47.604Z,36.20
2022-11-17T05:22:37.858Z,37.05
2022-11-17T05:25:07.045Z,30.10
2022-11-17T05:27:38.572Z,29.67
2022-11-17T05:30:10.243Z,27.80
2022-11-17T05:32:38.314Z,28.02
2022-11-17T05:35:08.639Z,26.80
2022-11-17T05:37:38.655Z,28.35
2022-11-17T05:40:06.796Z,28.02
2022-11-17T05:42:35.998Z,28.15
2022-11-17T05:45:08.491Z,21.33
2022-11-17T05:47:39.109Z,22.15
2022-11-17T05:50:07.183Z,20.88
2022-11-17T05:52:38.306Z,18.48
2022-11-17T05:57:38.598Z,18.23
2022-11-17T06:00:06.558Z,19.05
2022-11-17T06:02:53.298Z,19.73
2022-11-17T06:05:24.024Z,20.27
2022-11-17T06:07:58.476Z,21.75
2022-11-17T06:10:27.222Z,18.92
2022-11-17T06:12:54.304Z,19.90
2022-11-17T06:15:22.365Z,20.83
2022-11-17T06:17:55.738Z,20.92
2022-11-17T06:20:34.803Z,20.38
2022-11-17T06:23:04.984Z,19.38
2022-11-17T06:25:34.960Z,20.40
2022-11-17T06:28:07.031Z,19.67
2022-11-17T06:30:39.019Z,21.20
2022-11-17T06:33:12.506Z,20.92
2022-11-17T06:35:41.673Z,17.15
2022-11-17T06:38:09.549Z,17.40
2022-11-17T06:40:39.867Z,18.23
2022-11-17T06:43:09.748Z,18.02
2022-11-17T06:45:39.224Z,19.00
2022-11-17T06:48:08.890Z,19.52
2022-11-17T06:50:36.166Z,17.13
2022-11-17T06:53:07.370Z,19.98
2022-11-17T06:55:41.729Z,18.15
2022-11-17T06:58:11.824Z,19.58
2022-11-17T07:00:42.578Z,19.55
2022-11-17T07:03:12.945Z,20.48
2022-11-17T07:05:40.865Z,23.98
2022-11-17T07:08:09.686Z,26.30
2022-11-17T07:10:37.292Z,27.23
2022-11-17T07:13:05.242Z,31.05
2022-11-17T07:15:32.551Z,32.13
2022-11-17T07:18:00.396Z,32.85
2022-11-17T07:20:27.690Z,31.15
2022-11-17T07:22:59.492Z,26.48
2022-11-17T07:25:26.964Z,20.80
2022-11-17T07:27:59.993Z,18.70
2022-11-17T07:30:28.157Z,19.98
2022-11-17T07:32:55.684Z,22.17
2022-11-17T07:35:23.524Z,20.45
2022-11-17T07:38:02.174Z,22.55
2022-11-17T07:40:30.687Z,21.20
2022-11-17T07:42:58.121Z,21.15
2022-11-17T07:45:31.399Z,22.90
2022-11-17T07:48:01.470Z,19.75
2022-11-17T07:50:30.122Z,20.52
2022-11-17T07:52:57.937Z,21.85
2022-11-17T07:55:26.400Z,21.63
2022-11-17T07:58:02.400Z,18.98
2022-11-17T08:00:33.899Z,19.73
2022-11-17T08:03:03.843Z,21.25
2022-11-17T08:05:39.915Z,19.55
2022-11-17T08:08:13.227Z,22.95
2022-11-17T08:10:43.192Z,23.55
2022-11-17T08:13:17.621Z,23.50
2022-11-17T08:15:45.460Z,23.90
2022-11-17T08:18:13.518Z,22.98
2022-11-17T08:20:40.616Z,23.33
2022-11-17T08:23:08.675Z,22.45
2022-11-17T08:25:36.910Z,22.42
2022-11-17T08:28:04.701Z,22.58
2022-11-17T08:30:36.159Z,23.77
2022-11-17T08:33:05.320Z,25.35
2022-11-17T08:35:37.379Z,30.65
2022-11-17T08:38:05.459Z,27.58
2022-11-17T08:40:33.609Z,26.05
2022-11-17T08:43:01.774Z,26.13
2022-11-17T08:45:29.816Z,26.67
2022-11-17T08:47:57.984Z,28.25
2022-11-17T08:50:26.870Z,28.95
2022-11-17T08:52:54.231Z,24.50
2022-11-17T08:55:21.724Z,22.83
2022-11-17T08:57:52.406Z,19.10
2022-11-17T09:00:21.909Z,9.90
2022-11-17T09:02:49.806Z,8.27
2022-11-17T09:05:17.071Z,8.43
2022-11-17T09:07:45.058Z,8.88
2022-11-17T09:10:12.924Z,7.63
2022-11-17T09:12:41.330Z,7.22
2022-11-17T09:15:09.390Z,6.80
2022-11-17T09:17:40.680Z,7.93
2022-11-17T09:20:10.978Z,7.03
2022-11-17T09:22:39.883Z,6.38
2022-11-17T09:25:13.376Z,6.53
2022-11-17T09:27:49.408Z,7.28
2022-11-17T09:30:22.156Z,7.13
2022-11-17T09:32:50.797Z,8.30
2022-11-17T09:35:19.077Z,7.82
2022-11-17T09:37:47.479Z,8.00
2022-11-17T09:40:19.725Z,7.60
2022-11-17T09:42:50.856Z,13.30
2022-11-17T09:45:26.162Z,9.20
2022-11-17T09:48:12.385Z,12.32
2022-11-17T09:50:46.250Z,10.95
2022-11-17T09:53:31.168Z,9.20
2022-11-17T09:56:03.168Z,10.05
2022-11-17T09:58:41.278Z,8.77
2022-11-17T10:01:21.655Z,8.80
2022-11-17T10:03:51.870Z,7.25
2022-11-17T10:06:21.852Z,6.88
2022-11-17T10:09:13.311Z,8.50
2022-11-17T10:11:43.697Z,9.50
2022-11-17T10:14:18.879Z,8.85
2022-11-17T10:16:55.535Z,7.80
2022-11-17T10:19:32.513Z,7.80
2022-11-17T10:22:06.975Z,9.15
2022-11-17T10:25:01.441Z,8.60
2022-11-17T10:27:28.974Z,10.25
2022-11-17T10:30:00.183Z,10.57
2022-11-17T10:32:31.410Z,10.52
2022-11-17T10:35:22.477Z,10.30
2022-11-17T10:38:09.376Z,12.55
2022-11-17T10:40:39.514Z,11.50
2022-11-17T10:43:18.119Z,12.25
2022-11-17T10:45:46.065Z,9.82
2022-11-17T10:48:29.983Z,8.75
2022-11-17T10:51:11.306Z,8.38
2022-11-17T10:53:46.493Z,8.70
2022-11-17T10:56:22.346Z,12.38
2022-11-17T10:58:59.332Z,13.38
2022-11-17T11:01:33.891Z,13.00
2022-11-17T11:04:04.032Z,10.95
2022-11-17T11:06:34.911Z,10.23
2022-11-17T11:09:23.672Z,8.40
2022-11-17T11:11:58.958Z,7.82
2022-11-17T11:14:44.653Z,8.32
2022-11-17T11:17:14.795Z,10.63
2022-11-17T11:19:46.528Z,12.30
2022-11-17T11:22:35.103Z,10.82
2022-11-17T11:25:05.767Z,9.27
2022-11-17T11:28:00.048Z,8.63
2022-11-17T11:30:27.892Z,7.38
2022-11-17T11:33:11.537Z,6.50
2022-11-17T11:35:58.299Z,5.70
2022-11-17T11:38:55.301Z,4.50
2022-11-17T11:41:40.788Z,3.60
2022-11-17T11:44:20.510Z,4.22
2022-11-17T11:47:10.185Z,3.72
2022-11-17T11:49:56.867Z,4.43
2022-11-17T11:53:21.039Z,4.53
2022-11-17T11:55:53.306Z,3.90
2022-11-17T11:58:23.270Z,4.43
2022-11-17T12:00:56.591Z,2.95
2022-11-17T12:04:25.816Z,3.08
2022-11-17T12:07:34.252Z,2.95
2022-11-17T12:10:21.592Z,3.40
2022-11-17T12:13:14.022Z,2.90
2022-11-17T12:15:41.864Z,3.65
2022-11-17T12:18:50.480Z,3.92
2022-11-17T12:21:26.317Z,2.90
2022-11-17T12:23:54.998Z,3.58
2022-11-17T12:26:31.196Z,3.10
2022-11-17T12:29:20.540Z,3.38
2022-11-17T12:31:49.608Z,4.38
2022-11-17T12:34:35.052Z,3.90
2022-11-17T12:37:16.034Z,4.72
2022-11-17T12:40:04.054Z,6.95
2022-11-17T12:42:34.087Z,7.13
2022-11-17T12:45:07.161Z,7.82
2022-11-17T12:47:37.704Z,7.38
2022-11-17T12:50:37.945Z,5.73
2022-11-17T12:53:14.146Z,4.28
2022-11-17T12:55:48.073Z,4.55
2022-11-17T12:58:36.903Z,4.45
2022-11-17T13:01:29.959Z,4.50
2022-11-17T13:04:06.966Z,4.15
2022-11-17T13:07:03.271Z,6.00
2022-11-17T13:09:33.471Z,4.07
2022-11-17T13:12:11.071Z,5.95
2022-11-17T13:14:58.891Z,4.72
2022-11-17T13:17:31.863Z,5.50
2022-11-17T13:20:04.463Z,3.72
2022-11-17T13:22:33.593Z,4.82
2022-11-17T13:27:50.761Z,4.75
2022-11-17T13:30:25.725Z,3.80
2022-11-17T13:35:30.692Z,4.10
2022-11-17T13:38:22.226Z,5.47
2022-11-17T13:43:27.104Z,5.55
2022-11-17T13:45:55.854Z,5.03
2022-11-17T13:48:37.329Z,6.47
2022-11-17T13:53:47.703Z,5.57
2022-11-17T13:56:34.738Z,6.13
2022-11-17T13:59:21.935Z,5.30
2022-11-17T14:02:23.977Z,5.72
2022-11-17T14:05:09.974Z,7.47
2022-11-17T14:07:43.553Z,8.48
2022-11-17T14:10:22.879Z,7.40
2022-11-17T14:13:24.405Z,4.97
2022-11-17T14:15:55.628Z,5.55
2022-11-17T14:18:37.790Z,4.00
2022-11-17T14:21:17.940Z,4.90
2022-11-17T14:23:46.061Z,4.90
2022-11-17T14:26:27.373Z,6.32
2022-11-17T14:29:02.528Z,6.25
2022-11-17T14:31:31.703Z,8.70
2022-11-17T14:34:07.340Z,9.13
2022-11-17T14:36:37.859Z,9.88
2022-11-17T14:39:18.997Z,8.65
2022-11-17T14:41:48.759Z,6.87
2022-11-17T14:44:19.342Z,9.95
2022-11-17T14:46:47.006Z,25.17
2022-11-17T14:49:15.631Z,12.93
2022-11-17T14:51:43.319Z,14.93
2022-11-17T14:54:10.988Z,10.13
2022-11-17T14:56:38.708Z,6.55
2022-11-17T14:59:06.683Z,10.20
2022-11-17T15:01:38.840Z,12.48
2022-11-17T15:04:34.479Z,25.10
2022-11-17T15:06:55.819Z,21.40
2022-11-17T15:09:23.042Z,21.40
2022-11-17T15:11:52.853Z,22.08
2022-11-17T15:14:20.383Z,18.45
2022-11-17T15:16:49.330Z,23.40
2022-11-17T15:19:16.838Z,25.60
2022-11-17T15:21:48.046Z,16.23
2022-11-17T15:24:15.605Z,19.52
2022-11-17T15:26:42.909Z,31.10
2022-11-17T15:29:15.286Z,40.60
2022-11-17T15:31:43.092Z,38.85
2022-11-17T15:34:14.415Z,27.83
2022-11-17T15:36:48.138Z,26.20
2022-11-17T15:39:16.186Z,28.67
2022-11-17T15:41:43.842Z,24.15
2022-11-17T15:44:15.956Z,19.95
2022-11-17T15:46:47.955Z,15.98
2022-11-17T15:49:16.800Z,18.90
2022-11-17T15:51:50.421Z,16.23
2022-11-17T15:54:26.322Z,14.63
2022-11-17T15:56:54.394Z,15.98
2022-11-17T15:59:24.416Z,21.00
2022-11-17T16:01:51.675Z,15.45
2022-11-17T16:04:19.678Z,18.05
2022-11-17T16:06:47.777Z,17.63
2022-11-17T16:09:16.022Z,20.35
2022-11-17T16:11:43.927Z,22.30
2022-11-17T16:14:12.089Z,22.25
2022-11-17T16:16:39.566Z,26.92
2022-11-17T16:19:07.474Z,23.38
2022-11-17T16:21:35.015Z,22.77
2022-11-17T16:24:03.614Z,34.95
2022-11-17T16:26:31.304Z,33.97
2022-11-17T16:29:00.741Z,27.88
2022-11-17T16:31:30.426Z,28.23
2022-11-17T16:34:01.928Z,29.70
2022-11-17T16:39:06.789Z,36.38
2022-11-17T16:41:38.773Z,33.78
2022-11-17T16:44:13.006Z,36.72
2022-11-17T16:46:46.817Z,40.78
2022-11-17T16:49:23.450Z,35.53
2022-11-17T16:51:54.154Z,41.47
2022-11-17T16:54:21.566Z,38.72
2022-11-17T16:56:48.812Z,40.88
2022-11-17T16:59:16.963Z,50.42
2022-11-17T17:01:44.498Z,56.25
2022-11-17T17:04:12.792Z,48.85
2022-11-17T17:06:42.747Z,54.88
2022-11-17T17:09:12.213Z,37.83
2022-11-17T17:11:50.824Z,39.53
2022-11-17T17:14:19.131Z,36.03
2022-11-17T17:17:10.240Z,32.75
2022-11-17T17:19:40.476Z,34.90
2022-11-17T17:22:07.913Z,34.75
2022-11-17T17:24:35.076Z,31.30
2022-11-17T17:27:02.645Z,32.38
2022-11-17T17:29:39.569Z,32.33
2022-11-17T17:32:07.064Z,31.70
2022-11-17T17:35:04.362Z,33.53
2022-11-17T17:37:37.135Z,31.38
2022-11-17T17:40:20.155Z,34.25
2022-11-17T17:42:47.675Z,17.25
2022-11-17T17:45:15.131Z,21.65
2022-11-17T17:47:42.861Z,23.77
2022-11-17T17:50:10.127Z,33.33
2022-11-17T17:52:37.760Z,27.60
2022-11-17T17:55:05.775Z,31.02
2022-11-17T17:57:34.124Z,31.05
2022-11-17T18:00:01.624Z,29.63
2022-11-17T18:02:31.894Z,25.30
2022-11-17T18:04:59.239Z,28.13
2022-11-17T18:07:26.890Z,28.23
2022-11-17T18:09:56.671Z,34.78
2022-11-17T18:12:24.189Z,38.60
2022-11-17T18:14:51.222Z,24.30
2022-11-17T18:17:18.528Z,21.42
2022-11-17T18:19:45.877Z,19.50
2022-11-17T18:22:13.812Z,27.85
2022-11-17T18:24:41.104Z,21.92
2022-11-17T18:27:09.222Z,11.85
2022-11-17T18:29:38.118Z,12.98
2022-11-17T18:32:06.555Z,9.48
2022-11-17T18:34:34.602Z,7.78
2022-11-17T18:37:08.174Z,7.78
2022-11-17T18:39:36.486Z,6.78
2022-11-17T18:42:03.846Z,5.82
2022-11-17T18:44:31.769Z,5.97
2022-11-17T18:47:02.696Z,4.97
2022-11-17T18:51:58.397Z,5.93
2022-11-17T18:54:27.065Z,6.05
2022-11-17T18:56:54.352Z,6.57
2022-11-17T18:59:21.991Z,5.85
2022-11-17T19:01:50.391Z,5.60
2022-11-17T19:04:18.393Z,8.23
2022-11-17T19:06:45.722Z,7.15
2022-11-17T19:09:14.182Z,8.48
2022-11-17T19:11:41.652Z,10.50
2022-11-17T19:14:09.233Z,13.93
2022-11-17T19:16:44.346Z,15.85
2022-11-17T19:19:14.215Z,23.90
2022-11-17T19:21:42.659Z,17.90
2022-11-17T19:24:10.089Z,14.85
2022-11-17T19:26:37.388Z,13.60
2022-11-17T19:29:11.177Z,12.10
2022-11-17T19:31:42.094Z,11.18
2022-11-17T19:34:09.288Z,8.23
2022-11-17T19:36:36.648Z,7.40
2022-11-17T19:39:04.419Z,9.23
2022-11-17T19:41:37.495Z,8.27
2022-11-17T19:44:07.980Z,7.88
2022-11-17T19:46:36.883Z,7.68
2022-11-17T19:49:06.252Z,9.02
2022-11-17T19:51:37.103Z,9.85
2022-11-17T19:54:09.006Z,16.83
2022-11-17T19:56:37.048Z,23.00
2022-11-17T19:59:06.256Z,28.20
2022-11-17T20:01:34.592Z,27.88
2022-11-17T20:04:07.600Z,28.73
2022-11-17T20:06:38.675Z,30.17
2022-11-17T20:09:11.024Z,28.45
2022-11-17T20:11:38.616Z,24.13
2022-11-17T20:14:06.558Z,29.42
2022-11-17T20:16:34.411Z,32.53
2022-11-17T20:19:02.932Z,35.05
2022-11-17T20:21:33.445Z,36.38
2022-11-17T20:24:01.941Z,36.72
2022-11-17T20:26:32.973Z,30.63
2022-11-17T20:29:00.885Z,25.50
2022-11-17T20:31:34.167Z,24.38
2022-11-17T20:34:03.835Z,30.60
2022-11-17T20:36:33.109Z,31.02
2022-11-17T20:39:03.028Z,27.27
2022-11-17T20:41:30.595Z,28.60
2022-11-17T20:44:00.881Z,27.10
2022-11-17T20:46:28.994Z,25.17
2022-11-17T20:48:56.275Z,28.60
2022-11-17T20:51:25.390Z,32.90
2022-11-17T20:53:55.676Z,30.45
2022-11-17T20:56:22.958Z,34.88
2022-11-17T20:58:50.611Z,45.38
2022-11-17T21:01:23.607Z,44.60
2022-11-17T21:03:51.046Z,48.95
2022-11-17T21:06:20.832Z,42.72
2022-11-17T21:08:48.688Z,38.35
2022-11-17T21:11:37.884Z,35.97
2022-11-17T21:14:06.349Z,33.50
2022-11-17T21:16:38.194Z,30.77
2022-11-17T21:19:06.208Z,26.95
2022-11-17T21:21:34.689Z,28.35
2022-11-17T21:24:04.851Z,24.15
2022-11-17T21:26:32.968Z,19.75
2022-11-17T21:29:06.377Z,22.70
2022-11-17T21:31:38.654Z,24.73
2022-11-17T21:34:07.282Z,24.77
2022-11-17T21:36:36.115Z,23.33
2022-11-17T21:39:04.712Z,19.40
2022-11-17T21:41:56.323Z,15.63
2022-11-17T21:44:32.269Z,17.10
2022-11-17T21:46:59.681Z,15.50
2022-11-17T21:49:26.902Z,16.50
2022-11-17T21:51:54.122Z,18.35
2022-11-17T21:54:22.005Z,20.50
2022-11-17T21:56:49.269Z,22.58
2022-11-17T21:59:17.435Z,24.45
2022-11-17T22:01:45.007Z,21.92
2022-11-17T22:04:13.255Z,22.85
2022-11-17T22:06:40.532Z,22.48
2022-11-17T22:09:08.382Z,23.95
2022-11-17T22:11:35.995Z,32.20
2022-11-17T22:14:19.366Z,30.85
2022-11-17T22:16:52.464Z,38.78
2022-11-17T22:19:21.926Z,25.98
2022-11-17T22:21:52.405Z,25.75
2022-11-17T22:24:20.108Z,23.23
2022-11-17T22:26:48.108Z,21.45
2022-11-17T22:29:20.826Z,20.45
2022-11-17T22:32:13.175Z,19.05
2022-11-17T22:34:42.042Z,17.00
2022-11-17T22:37:09.589Z,11.32
2022-11-17T22:39:38.370Z,11.77
2022-11-17T22:42:08.764Z,14.65
2022-11-17T22:44:35.987Z,14.03
2022-11-17T22:47:04.609Z,14.25
2022-11-17T22:49:31.857Z,14.75
2022-11-17T22:52:04.980Z,16.80
2022-11-17T22:54:32.408Z,18.40
2022-11-17T22:57:00.249Z,18.55
2022-11-17T22:59:29.289Z,21.70
2022-11-17T23:01:57.318Z,20.95
2022-11-17T23:04:24.572Z,18.35
2022-11-17T23:06:52.008Z,17.75
2022-11-17T23:09:19.300Z,18.58
2022-11-17T23:11:46.935Z,21.63
2022-11-17T23:14:15.134Z,21.58
2022-11-17T23:16:42.294Z,19.10
2022-11-17T23:19:13.130Z,19.08
2022-11-17T23:21:41.000Z,16.85
2022-11-17T23:24:13.177Z,15.40
2022-11-17T23:26:42.053Z,14.35
2022-11-17T23:29:10.134Z,14.55
2022-11-17T23:31:37.358Z,15.20
2022-11-17T23:34:05.035Z,16.02
2022-11-17T23:36:32.502Z,16.42
2022-11-17T23:39:00.846Z,16.45
2022-11-17T23:41:29.392Z,15.50
2022-11-17T23:43:56.699Z,15.60
2022-11-17T23:46:25.896Z,14.18
2022-11-17T23:48:56.559Z,17.10
2022-11-17T23:51:26.931Z,17.27
2022-11-17T23:53:54.143Z,17.17
2022-11-17T23:56:22.073Z,16.27
2022-11-17T23:58:50.289Z,16.50
